Time;durP1;ratioP1;P1;durP2;ratioP2;P2;SDS_P1;SDS_P2;PMS_P1;PMS_P2;Temp;Humidity;BMP_temperature;BMP_pressure;BME280_temperature;BME280_humidity;BME280_pressure;Samples;Min_cycle;Max_cycle;Signal;HPM_P1;HPM_P2
2022/01/26 00:00:05;;;;;;;40.47;11.52;;;;;;;;;;5001370;28;20044;-52
2022/01/26 00:07:59;;;;;;;37.40;10.57;;;;;;;;;;5000209;28;20255;-49
2022/01/26 00:10:26;;;;;;;43.38;11.80;;;;;;;;;;4999224;28;20041;-50
2022/01/26 00:12:51;;;;;;;42.10;11.32;;;;;;;;;;4999930;28;20460;-49
2022/01/26 00:15:17;;;;;;;37.72;12.50;;;;;;;;;;4997386;28;20113;-53
2022/01/26 00:17:43;;;;;;;33.83;11.48;;;;;;;;;;4998883;28;20021;-53
2022/01/26 00:22:59;;;;;;;32.40;9.60;;;;;;;;;;5001663;28;20783;-53
2022/01/26 00:38:46;;;;;;;40.92;9.30;;;;;;;;;;5002185;28;20092;-53
2022/01/26 00:41:15;;;;;;;29.52;10.55;;;;;;;;;;4998126;28;20490;-53
2022/01/26 00:43:48;;;;;;;28.67;9.68;;;;;;;;;;4999235;28;20042;-53
2022/01/26 00:46:14;;;;;;;35.90;9.85;;;;;;;;;;4981106;28;20564;-52
2022/01/26 00:48:41;;;;;;;35.53;10.80;;;;;;;;;;4997270;28;20030;-53
2022/01/26 00:51:07;;;;;;;33.17;10.88;;;;;;;;;;4998306;28;20437;-51
2022/01/26 00:53:46;;;;;;;25.65;9.63;;;;;;;;;;5000847;28;20120;-50
2022/01/26 00:56:12;;;;;;;45.83;11.27;;;;;;;;;;4999110;28;20401;-52
2022/01/26 00:58:38;;;;;;;29.70;9.80;;;;;;;;;;4998882;28;20137;-53
2022/01/26 01:01:05;;;;;;;34.65;9.75;;;;;;;;;;4997678;28;20132;-53
2022/01/26 01:03:34;;;;;;;28.38;9.57;;;;;;;;;;4999281;28;20034;-51
2022/01/26 01:06:05;;;;;;;29.25;10.45;;;;;;;;;;4982052;28;20117;-51
2022/01/26 01:08:31;;;;;;;29.17;9.13;;;;;;;;;;4998308;28;20432;-52
2022/01/26 01:10:57;;;;;;;24.77;9.43;;;;;;;;;;4997991;28;20033;-53
2022/01/26 01:13:35;;;;;;;29.40;8.88;;;;;;;;;;4996139;28;20103;-52
2022/01/26 01:16:01;;;;;;;26.95;8.50;;;;;;;;;;5002016;28;20434;-53
2022/01/26 01:19:28;;;;;;;21.02;7.43;;;;;;;;;;5002011;28;20109;-50
2022/01/26 01:26:47;;;;;;;24.17;7.28;;;;;;;;;;4995041;28;20064;-51
2022/01/26 01:31:57;;;;;;;28.77;9.50;;;;;;;;;;5002203;28;20033;-53
2022/01/26 01:34:26;;;;;;;25.55;7.68;;;;;;;;;;4999285;28;20048;-54
2022/01/26 01:36:53;;;;;;;24.60;7.65;;;;;;;;;;4997656;28;20069;-53
2022/01/26 01:39:20;;;;;;;18.98;6.60;;;;;;;;;;5002364;28;20124;-52
2022/01/26 01:41:48;;;;;;;23.13;7.35;;;;;;;;;;5004445;28;20034;-51
2022/01/26 01:44:15;;;;;;;26.67;7.72;;;;;;;;;;5005958;28;20033;-53
2022/01/26 01:46:42;;;;;;;22.42;7.20;;;;;;;;;;5004282;28;20071;-52
2022/01/26 01:49:11;;;;;;;21.08;7.03;;;;;;;;;;5002340;28;20065;-51
2022/01/26 01:51:40;;;;;;;26.02;6.82;;;;;;;;;;5003169;28;20025;-51
2022/01/26 01:54:15;;;;;;;27.95;7.25;;;;;;;;;;5001196;28;20091;-52
2022/01/26 01:56:48;;;;;;;15.52;6.13;;;;;;;;;;4999074;28;20040;-53
2022/01/26 01:59:13;;;;;;;24.77;6.90;;;;;;;;;;5001173;28;20116;-53
2022/01/26 02:01:39;;;;;;;18.25;6.90;;;;;;;;;;5001847;28;20040;-53
2022/01/26 02:04:05;;;;;;;18.38;6.32;;;;;;;;;;4983435;28;20034;-53
2022/01/26 02:06:30;;;;;;;24.33;8.05;;;;;;;;;;5002568;28;20030;-54
2022/01/26 02:08:56;;;;;;;24.45;8.32;;;;;;;;;;5001825;28;20025;-53
2022/01/26 02:11:21;;;;;;;24.98;6.97;;;;;;;;;;4986776;28;20037;-53
2022/01/26 02:14:07;;;;;;;24.95;7.65;;;;;;;;;;5005276;28;20275;-51
2022/01/26 02:58:05;;;;;;;27.05;8.00;;;;;;;;;;5001945;28;20498;-51
2022/01/26 03:00:41;;;;;;;25.40;7.95;;;;;;;;;;5000679;28;20049;-53
2022/01/26 03:03:15;;;;;;;24.17;7.35;;;;;;;;;;5002105;28;20050;-53
2022/01/26 03:05:49;;;;;;;27.98;7.35;;;;;;;;;;4999949;28;20037;-53
2022/01/26 03:08:15;;;;;;;21.42;8.02;;;;;;;;;;5001047;28;20068;-51
2022/01/26 03:10:54;;;;;;;21.27;6.50;;;;;;;;;;5000006;28;20069;-51
2022/01/26 03:13:25;;;;;;;19.50;6.65;;;;;;;;;;5002079;28;20045;-53
2022/01/26 03:15:59;;;;;;;24.00;6.53;;;;;;;;;;4999631;28;20108;-51
2022/01/26 03:18:43;;;;;;;22.02;6.90;;;;;;;;;;5002111;28;20413;-53
2022/01/26 03:21:11;;;;;;;21.50;7.50;;;;;;;;;;5001117;28;20041;-53
2022/01/26 03:29:14;;;;;;;18.17;6.45;;;;;;;;;;5000235;28;20094;-52
2022/01/26 03:34:19;;;;;;;17.48;6.05;;;;;;;;;;5001777;28;20033;-51
2022/01/26 03:39:14;;;;;;;20.20;7.05;;;;;;;;;;5001453;28;20523;-51
2022/01/26 03:41:49;;;;;;;18.52;6.32;;;;;;;;;;5002144;28;20047;-53
2022/01/26 03:44:16;;;;;;;23.38;6.55;;;;;;;;;;5001864;28;20030;-53
2022/01/26 03:46:42;;;;;;;25.90;7.68;;;;;;;;;;4999555;28;20033;-54
2022/01/26 03:49:10;;;;;;;25.65;7.20;;;;;;;;;;4996624;28;20030;-50
2022/01/26 03:51:36;;;;;;;24.67;7.38;;;;;;;;;;5002711;28;20090;-51
2022/01/26 03:54:03;;;;;;;17.33;5.90;;;;;;;;;;5000882;28;20036;-51
2022/01/26 03:56:29;;;;;;;22.77;5.82;;;;;;;;;;5001749;28;20030;-51
2022/01/26 03:58:54;;;;;;;20.00;6.32;;;;;;;;;;5002340;28;20038;-54
2022/01/26 04:01:20;;;;;;;19.15;7.57;;;;;;;;;;5000083;28;20073;-53
2022/01/26 04:03:45;;;;;;;18.02;6.85;;;;;;;;;;4998051;28;20370;-52
2022/01/26 04:06:11;;;;;;;24.73;6.90;;;;;;;;;;4998837;28;20044;-50
2022/01/26 04:08:40;;;;;;;25.92;6.78;;;;;;;;;;5000133;28;20072;-52
2022/01/26 04:11:22;;;;;;;24.05;7.10;;;;;;;;;;4998491;28;20500;-50
2022/01/26 04:13:49;;;;;;;;;;;;;;;;;;5000361;28;20480;-52
2022/01/26 04:16:14;;;;;;;27.52;6.25;;;;;;;;;;4999208;28;19932;-52
2022/01/26 04:18:41;;;;;;;28.48;6.97;;;;;;;;;;4997563;28;20029;-53
2022/01/26 04:21:27;;;;;;;16.00;5.90;;;;;;;;;;4999562;28;20033;-53
2022/01/26 04:24:02;;;;;;;23.83;6.80;;;;;;;;;;5001164;28;20060;-53
2022/01/26 04:26:33;;;;;;;22.38;7.07;;;;;;;;;;4997446;28;20026;-53
2022/01/26 04:29:04;;;;;;;23.30;5.68;;;;;;;;;;4999815;28;20497;-51
2022/01/26 04:31:30;;;;;;;18.30;5.93;;;;;;;;;;5002758;28;20034;-53
2022/01/26 04:33:55;;;;;;;23.17;6.35;;;;;;;;;;4981107;28;20040;-53
2022/01/26 04:36:28;;;;;;;30.83;7.05;;;;;;;;;;4993634;28;20177;-52
2022/01/26 04:38:57;;;;;;;19.77;6.15;;;;;;;;;;4999085;28;20901;-53
2022/01/26 04:41:36;;;;;;;21.02;6.32;;;;;;;;;;5000424;28;20040;-53
2022/01/26 04:44:09;;;;;;;16.33;6.35;;;;;;;;;;4999795;28;20033;-53
2022/01/26 04:46:34;;;;;;;21.02;5.45;;;;;;;;;;4998266;28;20026;-52
2022/01/26 04:49:00;;;;;;;17.50;5.95;;;;;;;;;;4983073;28;20032;-50
2022/01/26 04:51:26;;;;;;;23.02;6.70;;;;;;;;;;4996818;28;20091;-50
2022/01/26 04:53:52;;;;;;;18.95;6.88;;;;;;;;;;5001214;28;20099;-51
2022/01/26 04:56:17;;;;;;;18.95;5.90;;;;;;;;;;4998239;28;20593;-50
2022/01/26 04:58:43;;;;;;;22.65;6.88;;;;;;;;;;4999778;28;20531;-49
2022/01/26 05:01:09;;;;;;;23.02;6.43;;;;;;;;;;4999001;28;20432;-51
2022/01/26 05:03:34;;;;;;;23.90;7.03;;;;;;;;;;4999001;28;20045;-49
2022/01/26 05:06:00;;;;;;;22.52;5.60;;;;;;;;;;5001588;28;20838;-49
2022/01/26 05:08:25;;;;;;;22.77;6.20;;;;;;;;;;4994095;28;20252;-51
2022/01/26 05:10:51;;;;;;;20.15;6.22;;;;;;;;;;4999517;28;20042;-50
2022/01/26 05:13:16;;;;;;;15.90;5.97;;;;;;;;;;5001870;28;20050;-53
2022/01/26 05:15:43;;;;;;;17.92;6.25;;;;;;;;;;5003590;28;20045;-50
2022/01/26 05:18:09;;;;;;;25.10;6.78;;;;;;;;;;5003654;28;20129;-52
2022/01/26 05:20:35;;;;;;;20.45;5.75;;;;;;;;;;5005358;28;20026;-50
2022/01/26 05:23:01;;;;;;;16.30;5.45;;;;;;;;;;5000745;28;20049;-51
2022/01/26 05:25:27;;;;;;;22.63;6.18;;;;;;;;;;5003213;28;20284;-49
2022/01/26 05:27:52;;;;;;;16.33;6.13;;;;;;;;;;5005299;28;20026;-53
2022/01/26 05:30:19;;;;;;;18.70;5.82;;;;;;;;;;5004373;28;20540;-52
2022/01/26 05:32:44;;;;;;;23.70;6.15;;;;;;;;;;5001940;28;20571;-52
2022/01/26 05:35:10;;;;;;;11.45;4.43;;;;;;;;;;5004161;28;20150;-52
2022/01/26 05:37:36;;;;;;;22.83;5.50;;;;;;;;;;4983433;28;20040;-50
2022/01/26 05:40:03;;;;;;;23.58;5.97;;;;;;;;;;5003355;28;20026;-52
2022/01/26 05:42:29;;;;;;;25.33;6.05;;;;;;;;;;4997800;28;20029;-52
2022/01/26 05:45:02;;;;;;;21.13;6.00;;;;;;;;;;5000172;28;20026;-52
2022/01/26 05:47:27;;;;;;;15.63;5.78;;;;;;;;;;4986084;28;20185;-52
2022/01/26 05:49:53;;;;;;;17.63;6.25;;;;;;;;;;5004022;28;20590;-51
2022/01/26 05:52:19;;;;;;;15.88;5.20;;;;;;;;;;5000740;28;20080;-51
2022/01/26 05:54:44;;;;;;;14.45;4.88;;;;;;;;;;5000711;28;20030;-50
2022/01/26 05:57:10;;;;;;;25.15;6.00;;;;;;;;;;5002784;28;20037;-51
2022/01/26 05:59:35;;;;;;;16.77;4.72;;;;;;;;;;5000421;28;20477;-49
2022/01/26 06:02:01;;;;;;;16.73;5.05;;;;;;;;;;5003307;28;20485;-51
2022/01/26 06:04:28;;;;;;;19.52;5.55;;;;;;;;;;5003928;28;20547;-51
2022/01/26 06:06:54;;;;;;;17.45;4.88;;;;;;;;;;5003464;28;20116;-52
2022/01/26 06:09:19;;;;;;;13.60;4.80;;;;;;;;;;4999660;28;20044;-49
2022/01/26 06:11:45;;;;;;;10.85;4.50;;;;;;;;;;5001646;28;20038;-49
2022/01/26 06:14:10;;;;;;;22.17;5.93;;;;;;;;;;5002285;28;20052;-51
2022/01/26 06:16:37;;;;;;;15.48;5.35;;;;;;;;;;5004092;28;20448;-52
2022/01/26 06:19:02;;;;;;;15.50;4.53;;;;;;;;;;5000462;28;20437;-53
2022/01/26 06:21:28;;;;;;;19.40;4.78;;;;;;;;;;4997842;28;20034;-51
2022/01/26 06:23:54;;;;;;;18.38;5.35;;;;;;;;;;5003387;28;20497;-51
2022/01/26 06:26:19;;;;;;;15.02;4.80;;;;;;;;;;4999962;28;20072;-53
2022/01/26 06:28:45;;;;;;;17.50;4.10;;;;;;;;;;5003922;28;20101;-52
2022/01/26 06:31:14;;;;;;;13.98;4.88;;;;;;;;;;5000509;28;20080;-52
2022/01/26 06:33:42;;;;;;;12.20;4.80;;;;;;;;;;5001687;28;20041;-52
2022/01/26 06:36:12;;;;;;;15.30;4.28;;;;;;;;;;5002809;28;20037;-52
2022/01/26 06:38:40;;;;;;;14.52;4.97;;;;;;;;;;5002908;28;20057;-51
2022/01/26 06:41:06;;;;;;;14.40;4.80;;;;;;;;;;5001064;28;20052;-50
2022/01/26 06:43:32;;;;;;;21.63;5.93;;;;;;;;;;4996997;28;20450;-52
2022/01/26 06:46:02;;;;;;;11.38;4.95;;;;;;;;;;5002905;28;20057;-52
2022/01/26 06:48:44;;;;;;;22.10;5.10;;;;;;;;;;5003241;28;20121;-50
2022/01/26 06:51:11;;;;;;;16.15;4.63;;;;;;;;;;5006545;28;20524;-50
2022/01/26 06:53:37;;;;;;;17.60;5.20;;;;;;;;;;5003391;28;20037;-48
2022/01/26 06:56:02;;;;;;;16.70;5.03;;;;;;;;;;5002179;28;20048;-52
2022/01/26 06:58:28;;;;;;;12.50;5.07;;;;;;;;;;5005317;28;20715;-50
2022/01/26 07:00:53;;;;;;;18.17;4.22;;;;;;;;;;5000780;28;20038;-51
2022/01/26 07:03:19;;;;;;;15.23;5.15;;;;;;;;;;5003386;28;20034;-51
2022/01/26 07:05:44;;;;;;;22.88;4.68;;;;;;;;;;5001557;28;20036;-52
2022/01/26 07:08:10;;;;;;;13.05;4.78;;;;;;;;;;5003214;28;20320;-49
2022/01/26 07:10:35;;;;;;;12.27;3.95;;;;;;;;;;4995195;28;20801;-49
2022/01/26 07:13:02;;;;;;;12.60;5.32;;;;;;;;;;4991677;28;20424;-50
2022/01/26 07:23:59;;;;;;;14.40;5.88;;;;;;;;;;4955426;28;20042;-52
2022/01/26 07:26:28;;;;;;;17.55;6.75;;;;;;;;;;4996821;28;20564;-51
2022/01/26 07:28:55;;;;;;;14.52;5.75;;;;;;;;;;5000895;28;20084;-52
2022/01/26 07:31:22;;;;;;;23.42;6.63;;;;;;;;;;4997369;28;20642;-52
2022/01/26 07:33:53;;;;;;;15.52;5.22;;;;;;;;;;4995933;28;20038;-51
2022/01/26 07:36:18;;;;;;;19.08;5.90;;;;;;;;;;5000453;28;20591;-52
2022/01/26 07:38:44;;;;;;;28.75;6.60;;;;;;;;;;4999301;28;20107;-52
2022/01/26 07:41:09;;;;;;;22.90;5.45;;;;;;;;;;4998488;28;20044;-52
2022/01/26 07:43:35;;;;;;;15.40;5.25;;;;;;;;;;5003934;28;20050;-52
2022/01/26 07:46:00;;;;;;;19.05;6.18;;;;;;;;;;4997410;28;20034;-52
2022/01/26 07:48:26;;;;;;;18.13;5.90;;;;;;;;;;4993256;28;20382;-52
2022/01/26 07:50:54;;;;;;;15.80;6.00;;;;;;;;;;4995055;28;20408;-48
2022/01/26 07:53:20;;;;;;;25.17;7.07;;;;;;;;;;4998928;28;20098;-50
2022/01/26 07:55:48;;;;;;;16.90;6.63;;;;;;;;;;4998481;28;20042;-48
2022/01/26 07:58:14;;;;;;;19.83;6.55;;;;;;;;;;4997443;28;20041;-49
2022/01/26 08:00:39;;;;;;;16.73;5.32;;;;;;;;;;4997536;28;20065;-48
2022/01/26 08:03:05;;;;;;;16.92;5.40;;;;;;;;;;4994205;28;20537;-48
2022/01/26 08:05:30;;;;;;;16.83;5.68;;;;;;;;;;4999867;28;20137;-49
2022/01/26 08:07:56;;;;;;;23.85;6.47;;;;;;;;;;4995898;28;20560;-49
2022/01/26 08:10:21;;;;;;;19.15;5.80;;;;;;;;;;5000253;28;20461;-53
2022/01/26 08:12:49;;;;;;;20.52;5.15;;;;;;;;;;4997458;28;20061;-51
2022/01/26 08:15:14;;;;;;;11.18;3.40;;;;;;;;;;4998149;28;20184;-48
2022/01/26 08:17:40;;;;;;;20.15;5.40;;;;;;;;;;5004966;28;20204;-48
2022/01/26 08:20:07;;;;;;;20.75;4.97;;;;;;;;;;4978441;28;20030;-55
2022/01/26 08:22:34;;;;;;;15.75;5.03;;;;;;;;;;4998504;28;20038;-54
2022/01/26 08:24:59;;;;;;;19.65;5.15;;;;;;;;;;4996238;28;20224;-55
2022/01/26 08:27:28;;;;;;;14.50;4.25;;;;;;;;;;4980357;28;20736;-55
2022/01/26 08:30:03;;;;;;;12.70;4.70;;;;;;;;;;5001359;28;20813;-54
2022/01/26 08:32:28;;;;;;;12.07;4.22;;;;;;;;;;4999155;28;20186;-56
2022/01/26 08:34:54;;;;;;;16.92;4.43;;;;;;;;;;4995636;28;20082;-56
2022/01/26 08:37:20;;;;;;;8.77;3.67;;;;;;;;;;4997064;28;20023;-56
2022/01/26 08:39:45;;;;;;;16.90;4.35;;;;;;;;;;4998787;28;21149;-56
2022/01/26 08:42:11;;;;;;;22.58;5.07;;;;;;;;;;4999014;28;20049;-56
2022/01/26 08:44:36;;;;;;;19.02;4.93;;;;;;;;;;4997127;28;20042;-55
2022/01/26 08:47:04;;;;;;;13.93;4.72;;;;;;;;;;4998666;28;20070;-54
2022/01/26 08:49:30;;;;;;;12.98;5.53;;;;;;;;;;4998559;28;20065;-56
2022/01/26 08:51:57;;;;;;;27.75;4.60;;;;;;;;;;4985524;28;20041;-56
2022/01/26 08:54:22;;;;;;;14.15;3.78;;;;;;;;;;4994397;28;20468;-53
2022/01/26 08:56:52;;;;;;;20.25;5.38;;;;;;;;;;4996457;28;20037;-55
2022/01/26 08:59:19;;;;;;;12.93;4.55;;;;;;;;;;4999800;28;20113;-55
2022/01/26 09:01:44;;;;;;;20.25;4.68;;;;;;;;;;4993168;28;20033;-55
2022/01/26 09:04:10;;;;;;;9.52;4.20;;;;;;;;;;4997697;28;20116;-56
2022/01/26 09:06:39;;;;;;;13.27;4.32;;;;;;;;;;5001808;28;20061;-55
2022/01/26 09:09:07;;;;;;;24.73;5.85;;;;;;;;;;4999794;28;20026;-55
2022/01/26 09:11:36;;;;;;;13.13;5.32;;;;;;;;;;4994877;28;20461;-55
2022/01/26 09:14:07;;;;;;;19.83;5.57;;;;;;;;;;4995849;28;20076;-56
2022/01/26 09:16:35;;;;;;;10.25;4.38;;;;;;;;;;4999992;28;20065;-55
2022/01/26 09:19:08;;;;;;;16.45;5.18;;;;;;;;;;4997671;28;20588;-55
2022/01/26 09:21:34;;;;;;;21.15;6.65;;;;;;;;;;5001141;28;20253;-55
2022/01/26 09:24:00;;;;;;;18.20;6.55;;;;;;;;;;4996439;28;20041;-55
2022/01/26 09:26:25;;;;;;;22.65;5.07;;;;;;;;;;4996895;28;20540;-55
2022/01/26 09:28:51;;;;;;;12.70;4.75;;;;;;;;;;4998305;28;20029;-55
2022/01/26 09:31:16;;;;;;;13.90;4.65;;;;;;;;;;5000285;28;20113;-56
2022/01/26 09:33:41;;;;;;;12.43;4.85;;;;;;;;;;4999618;28;20033;-54
2022/01/26 09:36:07;;;;;;;8.65;4.38;;;;;;;;;;4983565;28;20091;-54
2022/01/26 09:38:33;;;;;;;13.55;4.40;;;;;;;;;;4997214;28;20040;-55
2022/01/26 09:40:58;;;;;;;16.80;4.40;;;;;;;;;;4999424;28;20464;-54
2022/01/26 09:43:27;;;;;;;11.32;4.18;;;;;;;;;;4982642;28;20033;-54
2022/01/26 09:45:53;;;;;;;10.25;4.05;;;;;;;;;;4982056;28;20481;-55
2022/01/26 09:48:19;;;;;;;11.07;4.55;;;;;;;;;;4996901;28;20030;-55
2022/01/26 09:50:46;;;;;;;17.83;4.07;;;;;;;;;;4998523;28;20053;-54
2022/01/26 09:53:17;;;;;;;19.13;5.10;;;;;;;;;;4997789;28;20026;-55
2022/01/26 09:55:43;;;;;;;18.58;4.20;;;;;;;;;;4998576;28;20477;-54
2022/01/26 09:58:09;;;;;;;10.82;3.55;;;;;;;;;;4998758;28;20090;-55
2022/01/26 10:00:35;;;;;;;9.02;4.07;;;;;;;;;;4995824;28;20129;-53
2022/01/26 10:03:05;;;;;;;16.05;3.47;;;;;;;;;;5003653;28;20026;-55
2022/01/26 10:05:42;;;;;;;19.10;3.45;;;;;;;;;;5003284;28;20033;-55
2022/01/26 10:19:04;;;;;;;10.77;2.28;;;;;;;;;;5000606;28;20121;-55
2022/01/26 10:21:30;;;;;;;21.80;3.13;;;;;;;;;;5003737;28;20037;-54
2022/01/26 10:23:59;;;;;;;11.85;3.20;;;;;;;;;;4999987;28;20042;-55
2022/01/26 10:26:25;;;;;;;17.30;3.63;;;;;;;;;;4982165;28;20026;-53
2022/01/26 10:28:59;;;;;;;8.70;2.50;;;;;;;;;;5003705;28;20051;-55
2022/01/26 10:31:27;;;;;;;13.68;3.15;;;;;;;;;;4997318;28;20034;-55
2022/01/26 10:33:52;;;;;;;7.13;2.17;;;;;;;;;;5001307;28;20045;-56
2022/01/26 10:36:18;;;;;;;17.80;2.85;;;;;;;;;;4999895;28;20037;-55
2022/01/26 10:38:56;;;;;;;11.55;2.55;;;;;;;;;;5006063;28;20042;-55
2022/01/26 10:41:22;;;;;;;9.90;2.25;;;;;;;;;;5002800;28;20060;-56
2022/01/26 10:43:49;;;;;;;12.38;3.38;;;;;;;;;;4997546;28;20509;-55
2022/01/26 10:46:30;;;;;;;12.88;2.53;;;;;;;;;;5003505;28;20033;-55
2022/01/26 10:54:35;;;;;;;6.90;2.13;;;;;;;;;;4996890;28;20029;-55
2022/01/26 10:57:01;;;;;;;10.23;2.67;;;;;;;;;;5000611;28;20060;-55
2022/01/26 10:59:27;;;;;;;11.73;1.90;;;;;;;;;;4994128;28;20038;-56
2022/01/26 11:01:53;;;;;;;10.40;2.53;;;;;;;;;;4997957;28;20038;-56
2022/01/26 11:04:19;;;;;;;12.20;2.33;;;;;;;;;;5001879;28;20050;-55
2022/01/26 11:06:51;;;;;;;11.93;2.50;;;;;;;;;;4997810;28;20109;-55
2022/01/26 11:09:20;;;;;;;7.40;1.98;;;;;;;;;;4997606;28;20385;-54
2022/01/26 11:11:46;;;;;;;11.30;1.85;;;;;;;;;;5000590;28;20037;-56
2022/01/26 11:14:23;;;;;;;8.07;1.63;;;;;;;;;;4999237;28;20381;-56
2022/01/26 11:17:00;;;;;;;10.48;1.65;;;;;;;;;;4987926;28;20038;-55
2022/01/26 11:19:25;;;;;;;10.57;2.25;;;;;;;;;;4995601;28;20100;-55
2022/01/26 11:21:51;;;;;;;15.75;1.92;;;;;;;;;;4996833;28;20177;-55
2022/01/26 11:24:20;;;;;;;9.38;2.88;;;;;;;;;;5000861;28;20061;-56
2022/01/26 11:26:48;;;;;;;13.10;2.70;;;;;;;;;;4994854;28;20325;-56
2022/01/26 11:29:21;;;;;;;16.95;3.03;;;;;;;;;;4996719;28;20036;-56
2022/01/26 11:31:47;;;;;;;6.60;3.00;;;;;;;;;;5000901;28;20031;-55
2022/01/26 11:34:17;;;;;;;15.23;2.97;;;;;;;;;;5000848;28;20443;-54
2022/01/26 11:36:43;;;;;;;24.00;3.38;;;;;;;;;;5000134;28;20018;-55
2022/01/26 11:42:19;;;;;;;;;;;;;;;;;;4997990;28;20104;-56
2022/01/26 11:45:06;;;;;;;14.77;3.05;;;;;;;;;;4998104;28;19913;-56
2022/01/26 11:47:32;;;;;;;16.45;2.58;;;;;;;;;;5002753;28;20042;-53
2022/01/26 11:50:14;;;;;;;12.20;3.78;;;;;;;;;;5000113;28;20034;-55
2022/01/26 11:52:43;;;;;;;15.35;3.70;;;;;;;;;;4999521;28;20033;-55
2022/01/26 11:55:31;;;;;;;20.88;4.05;;;;;;;;;;5001979;28;20053;-56
2022/01/26 11:58:18;;;;;;;16.40;3.65;;;;;;;;;;5001921;28;20030;-54
2022/01/26 12:03:44;;;;;;;9.85;3.20;;;;;;;;;;5001950;28;20409;-56
2022/01/26 12:06:20;;;;;;;12.98;2.95;;;;;;;;;;5000255;28;20049;-56
2022/01/26 12:08:46;;;;;;;20.88;3.58;;;;;;;;;;4995125;28;20042;-54
2022/01/26 12:11:14;;;;;;;14.52;4.93;;;;;;;;;;4995832;28;20505;-56
2022/01/26 12:13:41;;;;;;;16.70;4.45;;;;;;;;;;4995445;28;20045;-56
2022/01/26 12:16:12;;;;;;;19.33;4.05;;;;;;;;;;4999519;28;20129;-56
2022/01/26 12:18:53;;;;;;;10.15;3.55;;;;;;;;;;5000699;28;20736;-55
2022/01/26 12:43:55;;;;;;;16.90;3.90;;;;;;;;;;4996416;28;20056;-56
2022/01/26 12:46:27;;;;;;;13.70;3.42;;;;;;;;;;4998939;28;20492;-56
2022/01/26 12:48:58;;;;;;;15.18;3.67;;;;;;;;;;5000699;28;20315;-55
2022/01/26 12:51:26;;;;;;;15.70;4.43;;;;;;;;;;4999446;28;20037;-52
2022/01/26 12:53:56;;;;;;;17.65;3.85;;;;;;;;;;4993830;28;20116;-54
2022/01/26 12:56:25;;;;;;;10.93;3.25;;;;;;;;;;4995183;28;20042;-52
2022/01/26 12:59:00;;;;;;;16.42;4.45;;;;;;;;;;4996297;28;20037;-55
2022/01/26 13:01:26;;;;;;;18.63;4.65;;;;;;;;;;4997924;28;20516;-55
2022/01/26 13:03:58;;;;;;;14.30;4.15;;;;;;;;;;4992334;28;20038;-56
2022/01/26 13:06:26;;;;;;;13.55;4.07;;;;;;;;;;4993472;28;20026;-56
2022/01/26 13:08:54;;;;;;;10.05;4.05;;;;;;;;;;5000368;28;20042;-56
2022/01/26 13:11:30;;;;;;;13.48;3.60;;;;;;;;;;4994013;28;20034;-55
2022/01/26 13:14:29;;;;;;;12.57;3.03;;;;;;;;;;4996974;28;20054;-56
2022/01/26 13:19:48;;;;;;;12.68;3.80;;;;;;;;;;4996504;28;20034;-55
2022/01/26 13:22:33;;;;;;;9.57;3.15;;;;;;;;;;4994721;28;20504;-56
2022/01/26 13:25:04;;;;;;;16.67;4.00;;;;;;;;;;4998164;28;20046;-55
2022/01/26 13:27:59;;;;;;;14.07;3.90;;;;;;;;;;4994982;28;20033;-56
2022/01/26 13:35:59;;;;;;;14.18;4.05;;;;;;;;;;4998607;28;20544;-54
2022/01/26 13:44:27;;;;;;;14.52;3.92;;;;;;;;;;5001834;28;20037;-56
2022/01/26 13:52:26;;;;;;;12.68;4.63;;;;;;;;;;4997296;28;20160;-55
2022/01/26 13:59:54;;;;;;;12.32;3.60;;;;;;;;;;5000073;28;20030;-56
2022/01/26 14:02:19;;;;;;;19.88;3.75;;;;;;;;;;5006254;28;20283;-54
2022/01/26 14:04:45;;;;;;;14.23;4.07;;;;;;;;;;4995207;28;20034;-55
2022/01/26 14:07:10;;;;;;;15.02;4.47;;;;;;;;;;4999846;28;20396;-55
2022/01/26 14:09:37;;;;;;;14.57;3.70;;;;;;;;;;4997924;28;20215;-59
2022/01/26 14:12:04;;;;;;;12.43;3.20;;;;;;;;;;4997048;28;20059;-59
2022/01/26 14:14:37;;;;;;;13.57;4.05;;;;;;;;;;4997776;28;20046;-58
2022/01/26 14:17:13;;;;;;;12.70;3.42;;;;;;;;;;4999913;28;20472;-58
2022/01/26 14:20:06;;;;;;;10.57;3.47;;;;;;;;;;4993274;28;20030;-58
2022/01/26 14:27:42;;;;;;;10.80;3.17;;;;;;;;;;4999050;28;20040;-58
2022/01/26 14:30:23;;;;;;;11.27;3.60;;;;;;;;;;4996211;28;20136;-58
2022/01/26 15:59:05;;;;;;;10.57;3.72;;;;;;;;;;4998132;28;20041;-58
2022/01/26 16:04:26;;;;;;;14.70;4.00;;;;;;;;;;4994520;28;20520;-58
2022/01/26 16:07:03;;;;;;;21.05;3.92;;;;;;;;;;4998818;28;20177;-58
2022/01/26 16:37:42;;;;;;;11.07;3.40;;;;;;;;;;5002084;28;20508;-57
2022/01/26 18:16:51;;;;;;;19.58;6.65;;;;;;;;;;4999935;28;20512;-55
2022/01/26 18:32:58;;;;;;;14.02;5.53;;;;;;;;;;4996345;28;20120;-50
2022/01/26 18:51:36;;;;;;;15.77;4.68;;;;;;;;;;4999024;28;20040;-55
2022/01/26 18:54:04;;;;;;;16.38;6.35;;;;;;;;;;5002175;28;20053;-56
2022/01/26 18:56:30;;;;;;;14.93;6.05;;;;;;;;;;4994297;28;20048;-52
2022/01/26 18:58:55;;;;;;;13.55;5.28;;;;;;;;;;4996144;28;20018;-57
2022/01/26 19:01:21;;;;;;;20.95;7.60;;;;;;;;;;4998706;28;20076;-55
2022/01/26 19:03:46;;;;;;;20.48;6.75;;;;;;;;;;4998019;28;20033;-56
2022/01/26 19:06:12;;;;;;;14.20;5.13;;;;;;;;;;5004062;28;20029;-54
2022/01/26 19:08:39;;;;;;;13.05;5.15;;;;;;;;;;5000531;28;20117;-56
2022/01/26 19:11:08;;;;;;;15.57;6.57;;;;;;;;;;4999797;28;20030;-54
2022/01/26 19:13:34;;;;;;;13.98;4.72;;;;;;;;;;5003979;28;20136;-51
2022/01/26 19:16:10;;;;;;;14.85;4.47;;;;;;;;;;5000740;28;20489;-56
2022/01/26 19:18:48;;;;;;;14.68;6.38;;;;;;;;;;5001030;28;20186;-56
2022/01/26 19:21:27;;;;;;;12.73;5.15;;;;;;;;;;5005853;28;20046;-53
2022/01/26 19:24:16;;;;;;;12.95;5.78;;;;;;;;;;5005856;28;20049;-54
2022/01/26 19:26:43;;;;;;;20.27;5.72;;;;;;;;;;5003229;28;20456;-56
2022/01/26 19:29:33;;;;;;;18.85;5.43;;;;;;;;;;4998024;28;20299;-54
2022/01/26 19:45:10;;;;;;;13.00;4.90;;;;;;;;;;4996964;28;20524;-55
2022/01/26 19:52:56;;;;;;;13.32;5.50;;;;;;;;;;4997087;28;20037;-54
2022/01/26 19:55:24;;;;;;;14.82;5.15;;;;;;;;;;4995918;28;20030;-54
2022/01/26 19:57:49;;;;;;;18.38;7.30;;;;;;;;;;4993740;28;20552;-54
2022/01/26 20:00:15;;;;;;;24.10;7.13;;;;;;;;;;4982632;28;20042;-55
2022/01/26 20:02:41;;;;;;;12.68;5.47;;;;;;;;;;4997730;28;20042;-53
2022/01/26 20:05:13;;;;;;;18.25;6.82;;;;;;;;;;4997809;28;20034;-57
2022/01/26 20:07:39;;;;;;;11.73;5.32;;;;;;;;;;5000481;28;20138;-53
2022/01/26 20:10:06;;;;;;;23.75;7.55;;;;;;;;;;4992413;28;20030;-55
2022/01/26 20:12:50;;;;;;;15.65;4.85;;;;;;;;;;4993465;28;20050;-54
2022/01/26 20:15:17;;;;;;;21.23;6.85;;;;;;;;;;4999035;28;20068;-55
2022/01/26 20:17:43;;;;;;;22.52;8.18;;;;;;;;;;5001134;28;20575;-55
2022/01/26 20:20:15;;;;;;;21.92;7.57;;;;;;;;;;4998418;28;20029;-53
2022/01/26 20:22:41;;;;;;;23.05;8.35;;;;;;;;;;5004755;28;20112;-55
2022/01/26 20:25:07;;;;;;;16.40;6.78;;;;;;;;;;4997213;28;20038;-54
2022/01/26 20:27:35;;;;;;;19.52;6.97;;;;;;;;;;5000267;28;20327;-53
2022/01/26 20:30:10;;;;;;;17.52;6.93;;;;;;;;;;5001026;28;20065;-54
2022/01/26 20:32:35;;;;;;;20.88;7.90;;;;;;;;;;4999332;28;20497;-54
2022/01/26 20:35:01;;;;;;;20.77;7.68;;;;;;;;;;4987443;28;20038;-52
2022/01/26 20:37:28;;;;;;;23.75;7.95;;;;;;;;;;4976993;28;20525;-56
2022/01/26 20:39:55;;;;;;;16.83;7.53;;;;;;;;;;4982532;28;20046;-56
2022/01/26 20:42:20;;;;;;;17.92;7.80;;;;;;;;;;4977396;28;20054;-55
2022/01/26 20:44:46;;;;;;;21.08;9.75;;;;;;;;;;4976311;28;21847;-56
2022/01/26 20:47:12;;;;;;;20.77;8.70;;;;;;;;;;4995644;28;20029;-55
2022/01/26 20:49:37;;;;;;;17.17;7.88;;;;;;;;;;4996636;28;20324;-52
2022/01/26 20:52:03;;;;;;;27.00;8.73;;;;;;;;;;4999277;28;20037;-52
2022/01/26 20:54:29;;;;;;;19.33;7.70;;;;;;;;;;4996180;28;20038;-54
2022/01/26 20:56:55;;;;;;;22.63;8.93;;;;;;;;;;5001287;28;20413;-56
2022/01/26 20:59:21;;;;;;;16.92;7.15;;;;;;;;;;5000520;28;20087;-53
2022/01/26 21:01:46;;;;;;;22.92;8.38;;;;;;;;;;5000000;28;20129;-55
2022/01/26 21:04:12;;;;;;;23.80;9.23;;;;;;;;;;4999458;28;20071;-56
2022/01/26 21:06:40;;;;;;;21.55;8.60;;;;;;;;;;5000724;28;20549;-56
2022/01/26 21:09:06;;;;;;;18.85;8.35;;;;;;;;;;5001633;28;20088;-56
2022/01/26 21:11:31;;;;;;;19.83;8.48;;;;;;;;;;4995479;28;20021;-56
2022/01/26 21:13:57;;;;;;;16.10;8.93;;;;;;;;;;5000982;28;20496;-54
2022/01/26 21:16:24;;;;;;;25.42;9.20;;;;;;;;;;4995530;28;20037;-56
2022/01/26 21:18:56;;;;;;;30.02;9.38;;;;;;;;;;5000309;28;20496;-56
2022/01/26 21:21:23;;;;;;;23.02;9.88;;;;;;;;;;5001713;28;20484;-55
2022/01/26 21:23:48;;;;;;;19.08;7.47;;;;;;;;;;4997657;28;20052;-56
2022/01/26 21:26:14;;;;;;;18.58;7.90;;;;;;;;;;4997773;28;20033;-53
2022/01/26 21:28:40;;;;;;;17.60;7.88;;;;;;;;;;5002084;28;20029;-54
2022/01/26 21:31:06;;;;;;;17.10;7.65;;;;;;;;;;5001768;28;20099;-56
2022/01/26 21:33:34;;;;;;;21.70;8.75;;;;;;;;;;5004056;28;20492;-56
2022/01/26 21:36:06;;;;;;;25.90;9.15;;;;;;;;;;4999073;28;20481;-56
2022/01/26 21:38:32;;;;;;;22.25;8.60;;;;;;;;;;5000072;28;20058;-57
2022/01/26 21:40:58;;;;;;;28.98;9.85;;;;;;;;;;4995441;28;20065;-55
2022/01/26 21:43:23;;;;;;;16.85;8.60;;;;;;;;;;5001866;28;20045;-56
2022/01/26 21:45:49;;;;;;;28.50;9.70;;;;;;;;;;4998920;28;20026;-53